createdAt,value
2022-12-19T00:01:19.082Z,50.75
2022-12-19T00:06:13.383Z,49.50
2022-12-19T00:11:08.281Z,42.90
2022-12-19T00:16:06.095Z,40.53
2022-12-19T00:21:04.615Z,42.58
2022-12-19T00:26:17.671Z,40.47
2022-12-19T00:31:17.146Z,38.28
2022-12-19T00:41:12.006Z,39.85
2022-12-19T00:46:06.865Z,41.78
2022-12-19T00:51:17.143Z,37.78
2022-12-19T00:56:16.342Z,38.83
2022-12-19T01:06:02.841Z,35.92
2022-12-19T01:10:56.323Z,34.80
2022-12-19T01:15:49.650Z,33.60
2022-12-19T01:20:44.581Z,33.75
2022-12-19T01:25:40.150Z,31.05
2022-12-19T01:30:40.776Z,29.92
2022-12-19T01:35:35.687Z,29.13
2022-12-19T01:40:29.580Z,28.30
2022-12-19T01:45:35.421Z,30.13
2022-12-19T01:50:32.928Z,32.03
2022-12-19T01:55:27.063Z,30.60
2022-12-19T02:00:20.135Z,27.55
2022-12-19T02:05:14.591Z,27.95
2022-12-19T02:10:10.005Z,32.75
2022-12-19T02:15:03.714Z,32.65
2022-12-19T02:20:03.692Z,30.77
2022-12-19T02:25:08.159Z,32.38
2022-12-19T02:30:18.345Z,31.85
2022-12-19T02:35:47.033Z,31.67
2022-12-19T02:40:51.895Z,28.65
2022-12-19T02:45:49.237Z,33.00
2022-12-19T02:50:45.805Z,28.92
2022-12-19T02:56:15.764Z,26.88
2022-12-19T03:01:24.510Z,31.20
2022-12-19T03:07:15.341Z,25.58
2022-12-19T03:12:17.688Z,28.80
2022-12-19T03:17:11.976Z,28.40
2022-12-19T03:22:06.026Z,24.70
2022-12-19T03:27:10.706Z,31.00
2022-12-19T03:32:07.519Z,26.10
2022-12-19T03:37:03.558Z,28.85
2022-12-19T03:42:15.886Z,25.60
2022-12-19T03:47:15.424Z,29.48
2022-12-19T03:57:03.532Z,31.48
2022-12-19T04:01:56.009Z,28.10
2022-12-19T04:06:49.770Z,28.90
2022-12-19T04:11:47.261Z,28.17
2022-12-19T04:16:56.778Z,23.65
2022-12-19T04:21:54.026Z,22.35
2022-12-19T04:26:48.416Z,21.33
2022-12-19T04:31:42.747Z,24.45
2022-12-19T04:36:36.216Z,25.27
2022-12-19T04:41:30.015Z,25.77
2022-12-19T04:46:24.245Z,29.20
2022-12-19T04:51:16.841Z,26.55
2022-12-19T04:56:10.852Z,26.58
2022-12-19T05:01:07.620Z,27.55
2022-12-19T05:06:10.221Z,27.80
2022-12-19T05:11:04.548Z,24.17
2022-12-19T05:15:58.552Z,24.10
2022-12-19T05:20:51.806Z,25.70
2022-12-19T05:25:44.612Z,26.50
2022-12-19T05:30:38.264Z,25.75
2022-12-19T05:35:32.024Z,26.00
2022-12-19T05:40:25.523Z,28.38
2022-12-19T05:45:19.379Z,28.45
2022-12-19T05:50:15.285Z,26.50
2022-12-19T05:55:09.450Z,30.30
2022-12-19T06:00:02.308Z,29.20
2022-12-19T06:05:05.816Z,28.58
2022-12-19T06:10:00.158Z,27.27
2022-12-19T06:14:53.717Z,27.45
2022-12-19T06:19:47.701Z,29.10
2022-12-19T06:24:41.020Z,29.30
2022-12-19T06:29:34.872Z,30.17
2022-12-19T06:35:02.392Z,27.65
2022-12-19T06:39:42.344Z,29.88
2022-12-19T06:44:36.652Z,28.80
2022-12-19T06:49:29.667Z,28.88
2022-12-19T06:54:23.931Z,29.38
2022-12-19T06:59:16.947Z,28.92
2022-12-19T07:04:10.405Z,28.90
2022-12-19T07:09:04.047Z,28.58
2022-12-19T07:13:57.603Z,26.98
2022-12-19T07:18:51.059Z,28.98
2022-12-19T07:23:44.921Z,29.75
2022-12-19T07:28:39.010Z,29.25
2022-12-19T07:33:33.019Z,32.03
2022-12-19T07:38:26.960Z,31.33
2022-12-19T07:43:21.063Z,32.38
2022-12-19T07:48:14.727Z,31.30
2022-12-19T07:53:07.468Z,29.60
2022-12-19T07:57:59.687Z,32.15
2022-12-19T08:02:53.662Z,33.15
2022-12-19T08:07:46.974Z,35.40
2022-12-19T08:12:40.867Z,33.17
2022-12-19T08:17:33.793Z,33.78
2022-12-19T08:22:28.203Z,34.33
2022-12-19T08:27:21.706Z,30.80
2022-12-19T08:32:20.514Z,31.00
2022-12-19T08:42:07.920Z,35.50
2022-12-19T08:47:02.537Z,33.33
2022-12-19T08:51:56.316Z,32.88
2022-12-19T08:56:49.629Z,33.22
2022-12-19T09:01:43.009Z,35.35
2022-12-19T09:06:36.345Z,33.58
2022-12-19T09:11:29.894Z,33.60
2022-12-19T09:16:24.810Z,30.73
2022-12-19T09:21:19.255Z,32.60
2022-12-19T09:26:13.832Z,29.10
2022-12-19T09:31:13.242Z,28.85
2022-12-19T09:36:06.444Z,28.98
2022-12-19T09:40:59.272Z,31.35
2022-12-19T09:45:55.237Z,29.33
2022-12-19T09:51:09.786Z,28.88
2022-12-19T09:56:04.239Z,30.20
2022-12-19T10:01:00.004Z,29.58
2022-12-19T10:07:05.945Z,28.40
2022-12-19T10:12:36.203Z,29.10
2022-12-19T10:16:40.303Z,31.48
2022-12-19T10:22:16.177Z,27.98
2022-12-19T10:27:02.155Z,29.08
2022-12-19T10:32:06.087Z,29.03
2022-12-19T10:37:26.588Z,30.30
2022-12-19T10:42:56.795Z,29.90
2022-12-19T10:47:57.450Z,30.67
2022-12-19T10:52:53.315Z,30.70
2022-12-19T10:57:46.886Z,33.78
2022-12-19T11:02:39.718Z,33.80
2022-12-19T11:07:32.912Z,30.80
2022-12-19T11:17:39.833Z,30.92
2022-12-19T11:23:15.539Z,28.13
2022-12-19T11:29:33.567Z,24.90
2022-12-19T11:30:09.736Z,26.77
2022-12-19T11:34:03.703Z,27.83
2022-12-19T11:38:57.327Z,27.83
2022-12-19T11:43:53.557Z,27.13
2022-12-19T11:49:11.951Z,26.95
2022-12-19T11:54:31.208Z,28.15
2022-12-19T11:59:32.763Z,31.77
2022-12-19T12:04:37.630Z,32.15
2022-12-19T12:14:26.579Z,28.38
2022-12-19T12:26:24.199Z,27.83
2022-12-19T12:31:14.590Z,26.55
2022-12-19T12:32:03.988Z,29.85
2022-12-19T12:43:01.991Z,26.38
2022-12-19T12:47:57.335Z,28.17
2022-12-19T12:52:59.043Z,26.80
2022-12-19T12:57:53.252Z,26.13
2022-12-19T13:03:13.323Z,28.73
2022-12-19T13:13:24.173Z,26.90
2022-12-19T13:18:35.198Z,27.13
2022-12-19T13:23:30.749Z,28.57
2022-12-19T13:28:23.889Z,30.58
2022-12-19T13:33:18.270Z,27.55
2022-12-19T13:40:02.078Z,29.35
2022-12-19T13:43:46.357Z,28.17
2022-12-19T13:48:45.178Z,26.38
2022-12-19T13:53:38.525Z,26.75
2022-12-19T13:58:55.353Z,28.88
2022-12-19T14:03:48.007Z,30.15
2022-12-19T14:09:25.197Z,26.05
2022-12-19T14:15:02.098Z,26.05
2022-12-19T14:22:04.925Z,26.30
2022-12-19T14:28:27.896Z,26.25
2022-12-19T14:31:06.741Z,26.10
2022-12-19T14:36:06.656Z,27.83
2022-12-19T14:41:08.475Z,27.88
2022-12-19T14:54:01.590Z,26.52
2022-12-19T14:54:32.220Z,30.17
2022-12-19T14:57:04.128Z,27.27
2022-12-19T15:02:06.504Z,29.67
2022-12-19T15:07:19.822Z,32.95
2022-12-19T15:14:54.921Z,31.58
2022-12-19T15:18:14.916Z,30.17
2022-12-19T15:23:09.062Z,27.35
2022-12-19T15:28:02.279Z,31.15
2022-12-19T15:32:56.261Z,27.75
2022-12-19T15:37:50.606Z,30.38
2022-12-19T15:42:45.854Z,29.25
2022-12-19T15:47:38.814Z,30.88
2022-12-19T15:52:32.056Z,33.05
2022-12-19T15:57:34.772Z,35.05
2022-12-19T16:02:56.369Z,31.77
2022-12-19T16:07:40.826Z,27.55
2022-12-19T16:12:41.238Z,32.08
2022-12-19T16:17:35.385Z,30.73
2022-12-19T16:22:29.365Z,30.20
2022-12-19T16:27:30.991Z,32.40
2022-12-19T16:32:26.372Z,29.85
2022-12-19T16:37:19.123Z,31.48
2022-12-19T16:42:17.521Z,33.88
2022-12-19T16:47:17.921Z,28.55
2022-12-19T16:52:10.782Z,30.63
2022-12-19T16:57:06.818Z,32.35
2022-12-19T17:02:01.228Z,35.85
2022-12-19T17:06:54.072Z,30.63
2022-12-19T17:11:48.728Z,32.03
2022-12-19T17:16:41.663Z,33.03
2022-12-19T17:21:35.180Z,37.80
2022-12-19T17:26:27.781Z,38.33
2022-12-19T17:31:26.572Z,40.75
2022-12-19T17:36:24.887Z,39.72
2022-12-19T17:41:19.770Z,42.80
2022-12-19T17:46:20.312Z,45.33
2022-12-19T17:51:14.957Z,41.60
2022-12-19T17:56:16.125Z,41.42
2022-12-19T18:01:20.243Z,45.45
2022-12-19T18:06:12.692Z,49.67
2022-12-19T18:11:11.146Z,49.97
2022-12-19T18:16:05.004Z,44.50
2022-12-19T18:20:59.171Z,41.95
2022-12-19T18:25:59.257Z,42.00
2022-12-19T18:31:00.087Z,41.40
2022-12-19T18:36:17.212Z,44.20
2022-12-19T18:41:11.776Z,39.05
2022-12-19T18:46:05.544Z,38.28
2022-12-19T18:51:38.439Z,40.85
2022-12-19T18:56:35.355Z,41.25
2022-12-19T19:01:29.612Z,39.33
2022-12-19T19:06:25.925Z,36.90
2022-12-19T19:11:39.289Z,36.85
2022-12-19T19:16:33.600Z,43.60
2022-12-19T19:21:28.789Z,44.05
2022-12-19T19:26:23.055Z,44.17
2022-12-19T19:31:18.278Z,46.60
2022-12-19T19:36:16.174Z,43.35
2022-12-19T19:41:09.527Z,42.80
2022-12-19T19:46:02.650Z,40.95
2022-12-19T19:50:56.333Z,40.40
2022-12-19T19:56:00.727Z,40.75
2022-12-19T20:00:54.252Z,40.90
2022-12-19T20:05:47.917Z,42.47
2022-12-19T20:10:40.622Z,45.30
2022-12-19T20:15:34.344Z,38.22
2022-12-19T20:20:28.441Z,44.17
2022-12-19T20:25:21.071Z,44.47
2022-12-19T20:30:13.507Z,41.83
2022-12-19T20:35:14.757Z,41.45
2022-12-19T20:40:12.280Z,43.38
2022-12-19T20:45:07.275Z,39.17
2022-12-19T20:50:00.049Z,42.78
2022-12-19T20:54:53.152Z,38.05
2022-12-19T20:59:47.161Z,41.92
2022-12-19T21:04:40.951Z,41.70
2022-12-19T21:09:37.871Z,41.10
2022-12-19T21:14:31.289Z,39.88
2022-12-19T21:19:24.784Z,39.35
2022-12-19T21:24:18.362Z,37.50
2022-12-19T21:29:11.648Z,37.97
2022-12-19T21:34:04.380Z,40.45
2022-12-19T21:38:59.541Z,41.78
2022-12-19T21:43:53.951Z,38.70
2022-12-19T21:48:48.067Z,39.28
2022-12-19T21:53:41.798Z,42.13
2022-12-19T21:58:34.414Z,41.85
2022-12-19T22:03:29.119Z,41.47
2022-12-19T22:08:22.962Z,41.55
2022-12-19T22:13:16.384Z,43.85
2022-12-19T22:18:09.575Z,42.38
2022-12-19T22:23:07.051Z,44.67
2022-12-19T22:28:04.661Z,41.10
2022-12-19T22:32:57.891Z,40.15
2022-12-19T22:37:52.033Z,42.58
2022-12-19T22:42:44.943Z,38.90
2022-12-19T22:47:42.366Z,38.80
2022-12-19T22:52:35.922Z,39.78
2022-12-19T22:57:29.688Z,39.25
2022-12-19T23:02:23.392Z,45.63
2022-12-19T23:07:17.172Z,39.55
2022-12-19T23:12:10.814Z,40.80
2022-12-19T23:17:08.972Z,39.47
2022-12-19T23:22:02.372Z,39.20
2022-12-19T23:26:55.401Z,36.47
2022-12-19T23:31:48.076Z,38.60
2022-12-19T23:41:54.335Z,34.45
2022-12-19T23:46:48.169Z,36.53
2022-12-19T23:51:41.646Z,37.47
2022-12-19T23:56:34.808Z,39.47
